Time;durP1;ratioP1;P1;durP2;ratioP2;P2;SDS_P1;SDS_P2;PMS_P1;PMS_P2;Temp;Humidity;BMP_temperature;BMP_pressure;BME280_temperature;BME280_humidity;BME280_pressure;Samples;Min_cycle;Max_cycle;Signal;HPM_P1;HPM_P2
2020/12/26 00:00:26;;;;;;;14.00;12.23;;;1.80;99.90;;;;;;4955765;28;20201;-91
2020/12/26 00:02:53;;;;;;;14.68;11.10;;;1.70;99.90;;;;;;4955268;29;20213;-90
2020/12/26 00:05:19;;;;;;;15.25;11.48;;;1.70;99.90;;;;;;4956679;28;20274;-90
2020/12/26 00:07:46;;;;;;;15.90;12.30;;;1.70;99.90;;;;;;4972084;28;20206;-91
2020/12/26 00:10:12;;;;;;;12.45;11.05;;;1.60;99.90;;;;;;4976655;28;20215;-90
2020/12/26 00:12:38;;;;;;;12.23;10.93;;;1.50;99.90;;;;;;4964501;28;20227;-90
2020/12/26 00:15:04;;;;;;;13.35;10.60;;;1.50;99.90;;;;;;4954685;28;20691;-90
2020/12/26 00:17:30;;;;;;;10.52;9.40;;;1.50;99.90;;;;;;4955696;28;20623;-91
2020/12/26 00:19:57;;;;;;;12.20;9.93;;;1.50;99.90;;;;;;4954937;29;20207;-89
2020/12/26 00:22:24;;;;;;;16.27;9.88;;;1.50;99.90;;;;;;4956671;28;20581;-90
2020/12/26 00:24:50;;;;;;;13.43;9.23;;;1.50;99.90;;;;;;4954907;28;20204;-90
2020/12/26 00:27:16;;;;;;;13.10;9.63;;;1.50;99.90;;;;;;4954947;28;20635;-90
2020/12/26 00:29:42;;;;;;;13.82;9.95;;;1.50;99.90;;;;;;4954903;29;20195;-89
2020/12/26 00:32:08;;;;;;;13.80;10.65;;;1.50;99.90;;;;;;4956143;28;20229;-91
2020/12/26 00:34:34;;;;;;;12.25;10.60;;;1.50;99.90;;;;;;4954507;28;20220;-89
2020/12/26 00:37:01;;;;;;;13.57;11.80;;;1.50;99.90;;;;;;4956528;28;20203;-89
2020/12/26 00:39:28;;;;;;;14.38;10.32;;;1.50;99.90;;;;;;4954956;29;20195;-89
2020/12/26 00:41:54;;;;;;;14.40;11.68;;;1.50;99.90;;;;;;4955910;28;20234;-89
2020/12/26 00:44:20;;;;;;;13.15;11.05;;;1.40;99.90;;;;;;4954618;28;20210;-89
2020/12/26 00:46:47;;;;;;;16.42;12.70;;;1.40;99.90;;;;;;4954449;28;20215;-89
2020/12/26 00:49:13;;;;;;;15.95;12.48;;;1.40;99.90;;;;;;4954554;29;20253;-89
2020/12/26 00:51:40;;;;;;;16.58;12.35;;;1.40;99.90;;;;;;4955407;28;20223;-90
2020/12/26 00:54:07;;;;;;;19.27;12.90;;;1.40;99.90;;;;;;4953060;28;20222;-91
2020/12/26 00:56:36;;;;;;;15.00;12.75;;;1.30;99.90;;;;;;4955468;28;20579;-89
2020/12/26 00:59:02;;;;;;;14.80;11.75;;;1.20;99.90;;;;;;4954295;28;20737;-90
2020/12/26 01:01:28;;;;;;;15.38;12.93;;;1.10;99.90;;;;;;4954919;28;20588;-89
2020/12/26 01:03:54;;;;;;;16.08;11.98;;;1.10;99.90;;;;;;4954138;28;20206;-89
2020/12/26 01:06:20;;;;;;;15.70;13.60;;;1.10;99.90;;;;;;4952248;28;20577;-89
2020/12/26 01:08:50;;;;;;;16.08;14.27;;;1.20;99.90;;;;;;4954279;28;20207;-90
2020/12/26 01:11:17;;;;;;;15.55;12.50;;;1.20;99.90;;;;;;4954755;28;20229;-88
2020/12/26 01:13:43;;;;;;;17.83;14.60;;;1.20;99.90;;;;;;4954051;28;20226;-88
2020/12/26 01:16:13;;;;;;;15.90;12.88;;;1.20;99.90;;;;;;4954378;28;20198;-89
2020/12/26 01:18:40;;;;;;;19.55;12.82;;;1.20;99.90;;;;;;4952750;28;20200;-89
2020/12/26 01:21:07;;;;;;;17.95;14.82;;;1.20;99.90;;;;;;4952054;28;20225;-89
2020/12/26 01:23:34;;;;;;;17.52;13.43;;;1.10;99.90;;;;;;4954047;28;20672;-89
2020/12/26 01:26:00;;;;;;;21.42;13.68;;;1.10;99.90;;;;;;4953933;28;20206;-90
2020/12/26 01:28:28;;;;;;;14.95;13.35;;;1.10;99.90;;;;;;4953716;28;20811;-89
2020/12/26 01:30:54;;;;;;;16.92;13.38;;;1.10;99.90;;;;;;4953639;28;20218;-89
2020/12/26 01:33:21;;;;;;;20.48;14.20;;;1.10;99.90;;;;;;4951711;29;20219;-89
2020/12/26 01:35:48;;;;;;;16.58;12.93;;;1.10;99.90;;;;;;4954011;28;20197;-89
2020/12/26 01:38:14;;;;;;;16.23;12.45;;;1.00;99.90;;;;;;4953622;29;20193;-90
2020/12/26 01:40:48;;;;;;;20.92;14.40;;;1.00;99.90;;;;;;4954032;28;20198;-89
2020/12/26 01:43:14;;;;;;;17.13;13.88;;;0.90;99.90;;;;;;4953526;28;20257;-90
2020/12/26 01:45:41;;;;;;;16.20;14.00;;;0.90;99.90;;;;;;4955918;28;20197;-90
2020/12/26 01:48:07;;;;;;;16.52;14.40;;;0.80;99.90;;;;;;4951567;28;20451;-89
2020/12/26 01:50:34;;;;;;;16.23;13.25;;;0.70;99.90;;;;;;4953948;28;20214;-90
2020/12/26 01:53:00;;;;;;;16.40;13.98;;;0.70;99.90;;;;;;4953172;28;20206;-89
2020/12/26 01:55:26;;;;;;;17.70;15.32;;;0.80;99.90;;;;;;4952330;28;20197;-90
2020/12/26 01:57:54;;;;;;;17.25;14.38;;;0.90;99.90;;;;;;4953359;28;20197;-91
2020/12/26 02:00:21;;;;;;;17.27;14.05;;;1.00;99.90;;;;;;4953364;28;20202;-90
2020/12/26 02:02:49;;;;;;;20.85;13.75;;;1.10;99.90;;;;;;4953269;29;20225;-90
2020/12/26 02:05:16;;;;;;;17.17;13.95;;;1.20;99.90;;;;;;4953255;28;20205;-90
2020/12/26 02:07:44;;;;;;;19.95;14.27;;;1.30;99.90;;;;;;4953297;29;20213;-89
2020/12/26 02:10:10;;;;;;;17.30;13.37;;;1.40;99.90;;;;;;4955017;28;20415;-90
2020/12/26 02:12:37;;;;;;;15.70;13.93;;;1.50;99.90;;;;;;4953341;29;20981;-90
2020/12/26 02:15:03;;;;;;;18.15;12.60;;;1.50;99.90;;;;;;4952940;28;20227;-90
2020/12/26 02:17:29;;;;;;;17.40;13.20;;;1.50;99.90;;;;;;4954391;28;20652;-90
2020/12/26 02:19:57;;;;;;;16.55;12.18;;;1.50;99.90;;;;;;4954988;28;20484;-90
2020/12/26 02:22:23;;;;;;;17.10;13.60;;;1.50;99.90;;;;;;4951557;28;20214;-89
2020/12/26 02:24:50;;;;;;;17.02;12.68;;;1.50;99.90;;;;;;4960199;28;20451;-90
2020/12/26 02:27:16;;;;;;;14.80;12.23;;;1.50;99.90;;;;;;4955138;29;20313;-91
2020/12/26 02:29:42;;;;;;;15.43;12.40;;;1.60;99.90;;;;;;4976733;28;20183;-89
2020/12/26 02:32:09;;;;;;;14.25;11.60;;;1.60;99.90;;;;;;4963533;28;20467;-90
2020/12/26 02:34:35;;;;;;;14.88;12.65;;;1.60;99.90;;;;;;4952990;29;20218;-89
2020/12/26 02:37:02;;;;;;;15.43;12.33;;;1.70;99.90;;;;;;4956642;28;20210;-90
2020/12/26 02:39:28;;;;;;;14.73;12.57;;;1.70;99.90;;;;;;4957162;28;20455;-90
2020/12/26 02:41:55;;;;;;;14.85;11.75;;;1.70;99.90;;;;;;4957707;28;20221;-91
2020/12/26 02:44:22;;;;;;;13.40;10.82;;;1.80;99.90;;;;;;4956727;28;20199;-89
2020/12/26 02:46:49;;;;;;;13.93;10.73;;;1.80;99.90;;;;;;4956986;28;20255;-91
2020/12/26 02:49:16;;;;;;;14.43;12.05;;;1.80;99.90;;;;;;4956691;28;20538;-90
2020/12/26 02:51:42;;;;;;;16.20;12.93;;;1.80;99.90;;;;;;4957343;28;20215;-89
2020/12/26 02:54:11;;;;;;;14.23;11.27;;;1.80;99.90;;;;;;4956513;29;20230;-90
2020/12/26 02:56:38;;;;;;;14.88;11.27;;;1.80;99.90;;;;;;4956510;28;20202;-90
2020/12/26 02:59:07;;;;;;;15.77;12.82;;;1.90;99.90;;;;;;4956562;28;20241;-89
2020/12/26 03:01:33;;;;;;;12.73;11.30;;;1.90;99.90;;;;;;4956838;28;20715;-90
2020/12/26 03:03:59;;;;;;;14.43;12.43;;;2.00;99.90;;;;;;4956427;28;20196;-90
2020/12/26 03:06:26;;;;;;;18.52;12.65;;;1.90;99.90;;;;;;4958108;28;20200;-91
2020/12/26 03:08:52;;;;;;;15.27;13.20;;;1.90;99.90;;;;;;4956316;28;20199;-91
2020/12/26 03:11:18;;;;;;;15.30;11.77;;;1.90;99.90;;;;;;4957727;28;20474;-90
2020/12/26 03:13:44;;;;;;;15.70;12.32;;;1.90;99.90;;;;;;4956482;29;20223;-91
2020/12/26 03:16:11;;;;;;;15.75;11.68;;;1.90;99.90;;;;;;4957680;28;20261;-91
2020/12/26 03:18:37;;;;;;;16.80;13.45;;;1.90;99.90;;;;;;4954597;29;20251;-90
2020/12/26 03:21:04;;;;;;;16.58;12.00;;;1.90;99.90;;;;;;4956095;28;20234;-90
2020/12/26 03:23:30;;;;;;;15.27;12.55;;;1.80;99.90;;;;;;4956755;28;20194;-92
2020/12/26 03:25:56;;;;;;;14.55;12.88;;;1.70;99.90;;;;;;4955842;29;20578;-90
2020/12/26 03:28:22;;;;;;;13.80;12.40;;;1.70;99.90;;;;;;4956378;28;20199;-90
2020/12/26 03:30:48;;;;;;;16.30;12.50;;;1.70;99.90;;;;;;4956007;29;20447;-90
2020/12/26 03:33:15;;;;;;;18.42;12.27;;;1.70;99.90;;;;;;4956540;28;20229;-90
2020/12/26 03:35:42;;;;;;;16.48;12.95;;;1.70;99.90;;;;;;4955772;29;20196;-91
2020/12/26 03:38:08;;;;;;;15.73;12.70;;;1.80;99.90;;;;;;4956219;28;20203;-90
2020/12/26 03:40:34;;;;;;;16.98;12.00;;;1.70;99.90;;;;;;4955526;29;20203;-90
2020/12/26 03:43:00;;;;;;;14.98;12.30;;;1.70;99.90;;;;;;4956257;28;20211;-91
2020/12/26 03:45:26;;;;;;;15.85;12.50;;;1.80;99.90;;;;;;4955582;28;20203;-90
2020/12/26 03:47:53;;;;;;;16.27;12.93;;;1.70;99.90;;;;;;4956709;28;20199;-90
2020/12/26 03:50:20;;;;;;;16.52;12.23;;;1.80;99.90;;;;;;4955719;29;20436;-90
2020/12/26 03:52:46;;;;;;;15.02;11.43;;;1.80;99.90;;;;;;4955874;28;20712;-90
2020/12/26 03:55:12;;;;;;;15.32;12.52;;;1.80;99.90;;;;;;4955483;29;20227;-90
2020/12/26 03:57:38;;;;;;;15.98;13.50;;;1.80;99.90;;;;;;4957742;28;20199;-89
2020/12/26 04:00:05;;;;;;;14.23;11.67;;;1.80;99.90;;;;;;4955959;29;20203;-90
2020/12/26 04:02:31;;;;;;;16.63;12.25;;;1.80;99.90;;;;;;4955968;28;20912;-91
2020/12/26 04:04:57;;;;;;;14.93;12.10;;;1.70;99.90;;;;;;4956117;28;20202;-90
2020/12/26 04:07:24;;;;;;;15.32;12.05;;;1.80;99.90;;;;;;4957465;28;20194;-91
2020/12/26 04:09:51;;;;;;;14.73;11.88;;;1.80;99.90;;;;;;4954058;29;20205;-90
2020/12/26 04:12:17;;;;;;;19.08;13.35;;;1.80;99.90;;;;;;4955801;28;20230;-91
2020/12/26 04:14:43;;;;;;;15.05;12.23;;;1.80;99.90;;;;;;4955766;29;20224;-89
2020/12/26 04:17:09;;;;;;;15.98;12.82;;;1.70;99.90;;;;;;4956963;28;20692;-90
2020/12/26 04:19:35;;;;;;;14.10;11.97;;;1.80;99.90;;;;;;4955999;29;20691;-91
2020/12/26 04:22:01;;;;;;;15.27;12.27;;;1.80;99.90;;;;;;4959193;28;21002;-90
2020/12/26 04:24:29;;;;;;;18.92;12.90;;;1.80;99.90;;;;;;4955487;28;20623;-90
2020/12/26 04:26:55;;;;;;;17.95;12.25;;;1.80;99.90;;;;;;4956245;28;20221;-90
2020/12/26 04:29:22;;;;;;;18.83;14.18;;;1.80;99.90;;;;;;4953040;29;20199;-90
2020/12/26 04:31:48;;;;;;;15.75;12.75;;;1.90;99.90;;;;;;4955561;28;20310;-90
2020/12/26 04:34:14;;;;;;;18.27;13.40;;;1.90;99.90;;;;;;4954682;28;20230;-91
2020/12/26 04:36:40;;;;;;;18.50;14.05;;;1.90;99.90;;;;;;4955430;28;20335;-91
2020/12/26 04:39:07;;;;;;;14.60;12.43;;;1.90;99.90;;;;;;4955275;28;20727;-92
2020/12/26 04:41:34;;;;;;;19.15;13.43;;;2.00;99.90;;;;;;4957738;28;20478;-89
2020/12/26 04:44:01;;;;;;;14.70;12.65;;;2.00;99.90;;;;;;4959103;29;20206;-90
2020/12/26 04:46:28;;;;;;;21.02;13.98;;;2.00;99.90;;;;;;4962854;28;20254;-90
2020/12/26 04:49:02;;;;;;;14.88;12.85;;;2.00;99.90;;;;;;4980841;28;20198;-89
2020/12/26 04:51:32;;;;;;;17.45;13.35;;;2.00;99.90;;;;;;4953671;28;20707;-90
2020/12/26 04:54:08;;;;;;;17.70;13.82;;;2.00;99.90;;;;;;4951607;28;20223;-90
2020/12/26 04:56:40;;;;;;;15.80;14.00;;;2.00;99.90;;;;;;4954125;28;20297;-90
2020/12/26 04:59:08;;;;;;;16.70;13.52;;;2.00;99.90;;;;;;4953746;28;20202;-90
2020/12/26 05:01:37;;;;;;;16.55;12.95;;;2.00;99.90;;;;;;4954466;28;20760;-89
2020/12/26 05:04:03;;;;;;;15.35;12.68;;;2.00;99.90;;;;;;4953761;29;20231;-90
2020/12/26 05:06:31;;;;;;;22.73;13.75;;;2.10;99.90;;;;;;4954046;29;20575;-90
2020/12/26 05:08:58;;;;;;;17.80;14.43;;;2.10;99.90;;;;;;4954203;28;20196;-91
2020/12/26 05:11:24;;;;;;;18.27;13.55;;;2.20;99.90;;;;;;4954253;28;20782;-91
2020/12/26 05:13:51;;;;;;;14.93;13.40;;;2.20;99.90;;;;;;4954183;28;20216;-90
2020/12/26 05:16:17;;;;;;;19.20;14.57;;;2.10;99.90;;;;;;4953621;29;20246;-91
2020/12/26 05:18:44;;;;;;;20.02;15.77;;;2.20;99.90;;;;;;4955199;28;20258;-90
2020/12/26 05:21:10;;;;;;;17.35;14.63;;;2.20;99.90;;;;;;4953797;29;20229;-90
2020/12/26 05:23:37;;;;;;;18.77;15.38;;;2.20;99.90;;;;;;4954192;28;20254;-90
2020/12/26 05:26:04;;;;;;;18.65;14.85;;;2.20;99.90;;;;;;4953526;28;20195;-90
2020/12/26 05:28:32;;;;;;;20.58;15.50;;;2.30;99.90;;;;;;4954666;28;20199;-91
2020/12/26 05:31:06;;;;;;;16.38;14.40;;;2.30;99.90;;;;;;4953770;29;20230;-90
2020/12/26 05:33:34;;;;;;;18.10;14.05;;;2.20;99.90;;;;;;4953644;28;20320;-90
2020/12/26 05:36:04;;;;;;;18.52;14.93;;;2.20;99.90;;;;;;4953267;29;20204;-90
2020/12/26 05:38:30;;;;;;;18.00;14.35;;;2.30;99.90;;;;;;4953707;28;20648;-91
2020/12/26 05:40:58;;;;;;;19.05;15.43;;;2.30;99.90;;;;;;4953410;28;20324;-91
2020/12/26 05:43:26;;;;;;;17.75;15.32;;;2.30;99.90;;;;;;4953157;28;20200;-90
2020/12/26 05:45:52;;;;;;;18.67;14.47;;;2.40;99.90;;;;;;4953084;28;20216;-90
2020/12/26 05:48:21;;;;;;;17.77;15.20;;;2.20;99.90;;;;;;4956645;28;20518;-90
2020/12/26 05:50:50;;;;;;;21.90;16.45;;;2.20;99.90;;;;;;4953353;28;20202;-90
2020/12/26 05:53:17;;;;;;;19.67;14.20;;;2.00;99.90;;;;;;4954425;28;20609;-90
2020/12/26 05:55:45;;;;;;;17.60;15.05;;;2.10;99.90;;;;;;4953192;28;20204;-89
2020/12/26 05:58:13;;;;;;;19.97;14.70;;;2.10;99.90;;;;;;4953628;28;20584;-90
2020/12/26 06:00:40;;;;;;;17.80;14.50;;;2.00;99.90;;;;;;4951435;28;20455;-90
2020/12/26 06:03:23;;;;;;;19.88;14.57;;;2.00;99.90;;;;;;4954593;28;20199;-90
2020/12/26 06:05:51;;;;;;;18.75;15.73;;;2.00;99.90;;;;;;4950636;29;20611;-90
2020/12/26 06:08:19;;;;;;;18.73;14.02;;;2.00;99.90;;;;;;4953481;28;20575;-90
2020/12/26 06:10:49;;;;;;;19.00;14.67;;;2.00;99.90;;;;;;4952421;28;20226;-91
2020/12/26 06:13:20;;;;;;;20.17;14.30;;;1.90;99.90;;;;;;4952967;28;20524;-90
2020/12/26 06:15:50;;;;;;;22.63;15.32;;;1.80;99.90;;;;;;4952949;28;20204;-90
2020/12/26 06:18:18;;;;;;;20.08;14.90;;;1.80;99.90;;;;;;4952709;28;20282;-89
2020/12/26 06:20:46;;;;;;;24.90;14.50;;;1.70;99.90;;;;;;4953378;28;20230;-91
2020/12/26 06:23:17;;;;;;;22.88;15.35;;;1.60;99.90;;;;;;4953097;29;20660;-91
2020/12/26 06:25:44;;;;;;;20.63;14.93;;;1.50;99.90;;;;;;4952321;28;20232;-89
2020/12/26 06:28:25;;;;;;;22.02;14.95;;;1.50;99.90;;;;;;4951298;28;20286;-91
2020/12/26 06:30:53;;;;;;;21.52;15.00;;;1.40;99.90;;;;;;4954226;28;20222;-91
2020/12/26 06:33:25;;;;;;;22.23;15.52;;;1.40;99.90;;;;;;4952698;29;20203;-90
2020/12/26 06:35:53;;;;;;;19.63;16.85;;;1.30;99.90;;;;;;4953305;28;20782;-91
2020/12/26 06:38:23;;;;;;;21.30;15.48;;;1.40;99.90;;;;;;4952856;29;20663;-89
2020/12/26 06:40:54;;;;;;;24.60;16.95;;;1.40;99.90;;;;;;4953887;28;20834;-90
2020/12/26 06:43:43;;;;;;;18.10;15.05;;;1.40;99.90;;;;;;4952743;29;20582;-89
2020/12/26 06:46:30;;;;;;;21.65;16.52;;;1.30;99.90;;;;;;4947478;28;20253;-89
2020/12/26 06:48:58;;;;;;;22.95;15.45;;;1.30;99.90;;;;;;4952185;28;20206;-90
2020/12/26 06:51:25;;;;;;;23.67;17.40;;;1.30;99.90;;;;;;4952644;28;20277;-90
2020/12/26 06:53:52;;;;;;;23.70;17.08;;;1.20;99.90;;;;;;4953760;28;20199;-91
2020/12/26 06:56:45;;;;;;;20.63;15.52;;;1.30;99.90;;;;;;4952397;28;20203;-92
2020/12/26 06:59:12;;;;;;;24.50;18.13;;;1.30;99.90;;;;;;4951408;28;20201;-89
2020/12/26 07:01:42;;;;;;;18.67;14.85;;;1.30;99.90;;;;;;4952497;29;20221;-90
2020/12/26 07:04:13;;;;;;;24.73;16.45;;;1.30;99.90;;;;;;4954446;29;20214;-90
2020/12/26 07:06:41;;;;;;;20.95;15.63;;;1.30;99.90;;;;;;4970663;28;20178;-89
2020/12/26 07:09:09;;;;;;;20.95;15.32;;;1.20;99.90;;;;;;4966145;28;20201;-91
2020/12/26 07:11:44;;;;;;;23.02;15.85;;;1.30;99.90;;;;;;4953037;28;20718;-90
2020/12/26 07:14:27;;;;;;;23.02;16.38;;;1.30;99.90;;;;;;4951051;28;20201;-90
2020/12/26 07:16:54;;;;;;;24.27;15.38;;;1.40;99.90;;;;;;4950961;28;20686;-90
2020/12/26 07:19:31;;;;;;;22.25;15.50;;;1.50;99.90;;;;;;4954282;28;20221;-89
2020/12/26 07:21:59;;;;;;;27.60;16.27;;;1.50;99.90;;;;;;4951746;28;20285;-91
2020/12/26 07:24:32;;;;;;;23.02;14.85;;;1.50;99.90;;;;;;4954476;28;20245;-90
2020/12/26 07:27:16;;;;;;;25.45;17.02;;;1.50;99.90;;;;;;4955071;29;20206;-90
2020/12/26 07:29:53;;;;;;;19.77;15.18;;;1.50;99.90;;;;;;4956727;28;20699;-91
2020/12/26 07:32:45;;;;;;;24.02;15.90;;;1.60;99.90;;;;;;4955416;28;20225;-90
2020/12/26 07:35:35;;;;;;;23.08;15.55;;;1.60;99.90;;;;;;4956030;28;20256;-90
2020/12/26 07:38:05;;;;;;;23.33;16.27;;;1.60;99.90;;;;;;4954981;28;20203;-90
2020/12/26 07:40:32;;;;;;;22.42;16.92;;;1.60;99.90;;;;;;4955952;28;20600;-90
2020/12/26 07:43:01;;;;;;;21.88;15.25;;;1.70;99.90;;;;;;4956468;29;20254;-89
2020/12/26 07:45:28;;;;;;;19.63;14.18;;;1.70;99.90;;;;;;4955511;28;20215;-90
2020/12/26 07:47:56;;;;;;;23.25;14.38;;;1.70;99.90;;;;;;4953941;29;20330;-90
2020/12/26 07:50:24;;;;;;;23.58;15.95;;;1.70;99.90;;;;;;4956666;28;20195;-89
2020/12/26 07:52:52;;;;;;;19.85;14.63;;;1.80;99.90;;;;;;4955428;29;20214;-89
2020/12/26 07:55:20;;;;;;;22.65;15.95;;;1.80;99.90;;;;;;4956839;28;20301;-90
2020/12/26 07:57:46;;;;;;;26.15;16.08;;;1.90;99.90;;;;;;4955500;28;20262;-89
2020/12/26 08:00:23;;;;;;;23.92;14.68;;;2.00;99.90;;;;;;4956271;28;20202;-89
2020/12/26 08:02:51;;;;;;;23.15;16.08;;;2.10;99.90;;;;;;4955321;29;20225;-89
2020/12/26 08:05:21;;;;;;;21.30;15.80;;;2.10;99.90;;;;;;4956162;28;20873;-90
2020/12/26 08:07:47;;;;;;;23.58;15.07;;;2.00;99.90;;;;;;4955542;29;20199;-89
2020/12/26 08:10:15;;;;;;;20.48;15.10;;;2.10;99.90;;;;;;4955595;28;20799;-89
2020/12/26 08:12:57;;;;;;;18.75;14.73;;;2.20;99.90;;;;;;4953618;28;20222;-91
2020/12/26 08:15:26;;;;;;;24.42;16.33;;;2.20;99.90;;;;;;4954010;28;20210;-89
2020/12/26 08:17:57;;;;;;;19.02;14.55;;;2.30;99.90;;;;;;4955011;28;20199;-89
2020/12/26 08:20:25;;;;;;;21.15;14.70;;;2.40;99.90;;;;;;4955093;28;20295;-89
2020/12/26 08:22:52;;;;;;;23.35;14.73;;;2.40;99.90;;;;;;4955022;28;20221;-90
2020/12/26 08:25:21;;;;;;;20.88;15.43;;;2.50;99.90;;;;;;4956163;28;20214;-90
2020/12/26 08:27:48;;;;;;;19.27;13.65;;;2.50;99.90;;;;;;4954923;28;20194;-90
2020/12/26 08:30:17;;;;;;;19.35;14.65;;;2.50;99.90;;;;;;4955605;28;20230;-90
2020/12/26 08:32:51;;;;;;;20.80;15.02;;;2.60;99.90;;;;;;4954837;29;20646;-90
2020/12/26 08:35:20;;;;;;;20.87;15.00;;;2.40;99.90;;;;;;4954394;28;20222;-90
2020/12/26 08:37:51;;;;;;;20.27;14.87;;;2.50;99.90;;;;;;4954664;29;20538;-90
2020/12/26 08:40:19;;;;;;;19.08;14.80;;;2.50;99.90;;;;;;4955294;28;20459;-90
2020/12/26 08:42:45;;;;;;;21.45;15.68;;;2.50;99.90;;;;;;4954490;28;20318;-90
2020/12/26 08:45:27;;;;;;;19.67;14.80;;;2.60;99.90;;;;;;4955097;28;20246;-89
2020/12/26 08:47:58;;;;;;;22.00;14.57;;;2.60;99.90;;;;;;4954606;29;20455;-89
2020/12/26 08:50:25;;;;;;;19.67;12.88;;;2.60;99.90;;;;;;4954820;28;20215;-90
2020/12/26 08:53:05;;;;;;;18.93;13.67;;;2.90;99.90;;;;;;4954428;28;20211;-90
2020/12/26 08:55:43;;;;;;;19.23;12.63;;;3.10;99.90;;;;;;4953816;28;20443;-92
2020/12/26 08:58:10;;;;;;;16.77;12.77;;;3.30;99.90;;;;;;4952522;28;20440;-90
2020/12/26 09:00:37;;;;;;;16.93;13.67;;;3.50;99.90;;;;;;4955649;28;20958;-90
2020/12/26 09:03:03;;;;;;;14.67;12.40;;;3.80;99.90;;;;;;4954399;28;20454;-91
2020/12/26 09:05:31;;;;;;;20.33;11.83;;;3.90;99.90;;;;;;4954409;28;20506;-83
2020/12/26 09:08:01;;;;;;;14.70;12.00;;;3.80;99.90;;;;;;4954056;28;20522;-84
2020/12/26 09:10:28;;;;;;;16.37;12.63;;;4.00;99.90;;;;;;4953392;28;20443;-86
2020/12/26 09:13:01;;;;;;;18.97;12.90;;;4.30;99.90;;;;;;4954024;28;20518;-84
2020/12/26 09:15:46;;;;;;;16.47;11.97;;;4.40;99.90;;;;;;4953703;28;20445;-91
2020/12/26 09:18:17;;;;;;;15.23;13.13;;;4.30;99.90;;;;;;4957823;28;20445;-91
2020/12/26 09:20:51;;;;;;;14.80;13.17;;;4.40;99.90;;;;;;4968760;28;20908;-92
2020/12/26 09:23:18;;;;;;;16.23;12.00;;;4.60;99.90;;;;;;4968834;28;20437;-90
2020/12/26 09:25:46;;;;;;;15.37;12.53;;;4.70;99.90;;;;;;4953557;28;20488;-92
2020/12/26 09:28:14;;;;;;;16.07;13.03;;;4.80;99.90;;;;;;4953458;29;20479;-91
2020/12/26 09:30:40;;;;;;;17.07;12.40;;;4.70;99.90;;;;;;4950847;28;20448;-93
2020/12/26 09:33:07;;;;;;;17.10;12.23;;;4.60;99.90;;;;;;4954545;28;20456;-90
2020/12/26 09:35:34;;;;;;;14.97;11.87;;;4.50;99.90;;;;;;4954306;28;20452;-91
2020/12/26 09:38:01;;;;;;;13.80;11.80;;;4.40;99.90;;;;;;4953337;29;20531;-92
2020/12/26 09:40:29;;;;;;;16.00;11.93;;;4.30;99.90;;;;;;4953627;28;20453;-94
2020/12/26 09:42:55;;;;;;;12.27;10.97;;;4.20;99.90;;;;;;4943463;29;20527;-92
2020/12/26 09:45:22;;;;;;;15.50;12.57;;;4.20;99.90;;;;;;4959551;28;20485;-92
2020/12/26 09:47:48;;;;;;;13.40;11.93;;;4.30;99.90;;;;;;4958810;28;20456;-92
2020/12/26 09:50:14;;;;;;;14.80;12.13;;;4.30;99.90;;;;;;4958380;29;20445;-93
2020/12/26 09:52:42;;;;;;;13.07;11.03;;;4.50;99.90;;;;;;4953746;28;20472;-92
2020/12/26 09:55:10;;;;;;;12.93;10.90;;;4.50;99.90;;;;;;4953213;28;20444;-93
2020/12/26 09:57:37;;;;;;;16.87;11.30;;;4.70;99.90;;;;;;4954062;28;20444;-92
2020/12/26 10:00:05;;;;;;;17.97;10.03;;;4.90;99.90;;;;;;4953434;29;20532;-93
2020/12/26 10:02:31;;;;;;;13.47;11.70;;;5.10;99.90;;;;;;4954956;28;20515;-92
2020/12/26 10:04:57;;;;;;;12.77;10.80;;;5.30;99.90;;;;;;4953202;28;20488;-93
2020/12/26 10:07:23;;;;;;;13.60;10.77;;;5.20;99.90;;;;;;4953512;28;20938;-93
2020/12/26 10:09:50;;;;;;;12.40;10.53;;;5.10;99.90;;;;;;4953778;29;20981;-92
2020/12/26 10:12:19;;;;;;;20.03;12.63;;;5.10;99.90;;;;;;4953455;28;20469;-92
2020/12/26 10:14:46;;;;;;;11.27;10.10;;;5.20;99.90;;;;;;4953052;28;20463;-92
2020/12/26 10:17:12;;;;;;;13.33;9.83;;;5.30;99.90;;;;;;4954799;28;20972;-92
2020/12/26 10:19:38;;;;;;;11.43;9.17;;;5.40;99.90;;;;;;4953653;28;20962;-93
2020/12/26 10:22:04;;;;;;;10.37;9.00;;;5.60;99.90;;;;;;4953423;28;20469;-92
2020/12/26 10:24:30;;;;;;;12.87;9.10;;;5.80;99.90;;;;;;4952969;28;20489;-92
2020/12/26 10:26:57;;;;;;;10.70;9.30;;;5.80;99.90;;;;;;4954358;28;20448;-92
2020/12/26 10:29:24;;;;;;;13.13;10.13;;;5.90;99.90;;;;;;4951233;29;20958;-90
2020/12/26 10:31:50;;;;;;;11.60;10.07;;;5.90;99.90;;;;;;4953051;28;21024;-90
2020/12/26 10:34:17;;;;;;;13.23;9.23;;;6.00;99.90;;;;;;4952900;29;20445;-90
2020/12/26 10:36:45;;;;;;;13.50;9.77;;;6.10;99.90;;;;;;4953000;28;20464;-89
2020/12/26 10:39:11;;;;;;;11.80;9.23;;;6.30;99.90;;;;;;4952858;29;20475;-91
2020/12/26 10:41:42;;;;;;;11.87;9.23;;;6.50;99.90;;;;;;4952921;28;20572;-91
2020/12/26 10:44:10;;;;;;;12.70;9.87;;;6.70;99.90;;;;;;4951393;28;20492;-91
2020/12/26 10:46:36;;;;;;;10.40;9.30;;;6.70;99.90;;;;;;4953941;28;20437;-90
2020/12/26 10:49:02;;;;;;;10.27;9.27;;;7.00;99.90;;;;;;4953011;28;20513;-91
2020/12/26 10:51:28;;;;;;;11.30;8.50;;;7.20;99.90;;;;;;4953654;28;20476;-90
2020/12/26 10:53:54;;;;;;;9.60;8.60;;;7.60;99.90;;;;;;4953076;29;20938;-92
2020/12/26 10:56:20;;;;;;;10.73;8.00;;;8.00;99.90;;;;;;4955637;28;20456;-89
2020/12/26 10:58:47;;;;;;;9.87;7.63;;;8.30;99.30;;;;;;4956196;29;20451;-91
2020/12/26 11:01:14;;;;;;;11.63;8.00;;;8.60;98.00;;;;;;4957080;28;20476;-91
2020/12/26 11:03:40;;;;;;;9.87;7.00;;;9.00;97.10;;;;;;4956825;28;20444;-90
2020/12/26 11:06:06;;;;;;;13.77;7.97;;;8.90;96.10;;;;;;4958834;28;20464;-90
2020/12/26 11:08:32;;;;;;;7.43;6.73;;;9.40;95.90;;;;;;4957210;28;20448;-91
2020/12/26 11:10:58;;;;;;;8.60;7.47;;;9.70;95.80;;;;;;4956568;28;21035;-90
2020/12/26 11:13:24;;;;;;;8.10;6.90;;;9.90;95.10;;;;;;4956045;28;20934;-91
2020/12/26 11:15:50;;;;;;;9.73;6.73;;;9.80;93.90;;;;;;4958351;28;20449;-95
2020/12/26 11:18:18;;;;;;;7.03;6.33;;;9.80;93.60;;;;;;4977734;28;20937;-95
2020/12/26 11:20:44;;;;;;;8.23;6.53;;;9.80;92.60;;;;;;4959004;29;20460;-94
2020/12/26 11:23:10;;;;;;;9.27;6.20;;;9.50;93.20;;;;;;4959410;29;20448;-94
2020/12/26 11:25:37;;;;;;;8.40;5.70;;;9.50;93.20;;;;;;4964120;28;20480;-93
2020/12/26 11:28:03;;;;;;;8.13;5.80;;;9.70;92.80;;;;;;4969861;28;20445;-94
2020/12/26 11:30:29;;;;;;;6.30;5.70;;;10.10;91.40;;;;;;4961081;29;20460;-94
2020/12/26 11:32:55;;;;;;;6.67;5.90;;;9.90;91.60;;;;;;4961814;28;20733;-95
2020/12/26 11:35:41;;;;;;;6.10;5.50;;;10.10;91.00;;;;;;4975917;28;20444;-94
2020/12/26 11:38:08;;;;;;;6.60;5.73;;;10.70;90.70;;;;;;4949751;28;20474;-95
2020/12/26 11:40:34;;;;;;;6.27;4.30;;;11.60;88.80;;;;;;4956212;29;20456;-96
2020/12/26 11:43:00;;;;;;;5.90;5.20;;;12.20;85.30;;;;;;4978489;28;20447;-95
2020/12/26 11:45:27;;;;;;;6.17;5.57;;;11.90;83.90;;;;;;4972476;28;20488;-96
2020/12/26 11:47:53;;;;;;;5.80;5.20;;;11.50;84.60;;;;;;4958804;28;20456;-95
2020/12/26 11:50:19;;;;;;;4.97;4.47;;;11.30;84.80;;;;;;4957956;29;20453;-94
2020/12/26 11:52:47;;;;;;;5.67;5.13;;;10.20;83.70;;;;;;4958769;29;20483;-95
2020/12/26 11:55:13;;;;;;;4.73;3.87;;;9.60;86.10;;;;;;4959892;28;20500;-94
2020/12/26 11:57:39;;;;;;;6.23;4.83;;;8.80;86.00;;;;;;4959638;29;20461;-94
2020/12/26 12:00:06;;;;;;;8.23;4.17;;;8.30;90.10;;;;;;4973900;28;20451;-95
2020/12/26 12:02:32;;;;;;;5.90;5.30;;;8.10;90.80;;;;;;4977658;28;20945;-93
2020/12/26 12:04:58;;;;;;;6.17;4.80;;;8.40;90.90;;;;;;4963945;28;20453;-93
2020/12/26 12:07:24;;;;;;;6.40;4.80;;;8.20;90.90;;;;;;4959098;29;20457;-95
2020/12/26 12:09:52;;;;;;;7.53;5.10;;;8.10;91.00;;;;;;4960253;28;20453;-96
2020/12/26 12:12:19;;;;;;;10.40;7.10;;;8.30;91.20;;;;;;4966165;29;20477;-93
2020/12/26 12:14:45;;;;;;;5.67;4.20;;;8.40;91.50;;;;;;4963727;28;20523;-93
2020/12/26 12:17:11;;;;;;;6.93;4.97;;;8.50;91.40;;;;;;4959581;29;20441;-94
2020/12/26 12:19:38;;;;;;;6.10;4.37;;;8.60;91.30;;;;;;4958306;29;20827;-95
2020/12/26 12:22:04;;;;;;;5.50;5.00;;;8.50;91.50;;;;;;4957863;28;20477;-95
2020/12/26 12:24:31;;;;;;;5.53;5.03;;;8.40;91.90;;;;;;4958002;29;20546;-95
2020/12/26 12:26:58;;;;;;;6.73;5.37;;;8.30;91.90;;;;;;4958149;29;20460;-95
2020/12/26 12:29:24;;;;;;;14.40;8.67;;;8.20;91.70;;;;;;4943310;29;20955;-96
2020/12/26 12:31:50;;;;;;;7.33;5.13;;;8.10;91.90;;;;;;4961292;28;20523;-95
2020/12/26 12:34:17;;;;;;;7.23;5.47;;;8.10;92.00;;;;;;4970066;28;20473;-94
2020/12/26 12:36:43;;;;;;;6.43;4.93;;;8.00;92.00;;;;;;4958066;28;20464;-94
2020/12/26 12:39:09;;;;;;;4.93;4.53;;;8.00;92.00;;;;;;4959174;29;20457;-94
2020/12/26 12:41:36;;;;;;;7.17;4.97;;;8.00;91.80;;;;;;4959056;28;20540;-95
2020/12/26 12:44:03;;;;;;;6.57;5.50;;;8.10;91.50;;;;;;4977080;28;20841;-95